Terminal Aerodrome Forecast
Issued by NWS

Home | Current Version | Previous Version | Text Only | Print | Product List | Glossary On
Versions: 1 2 3 4 5 6 7 8 9 10 11 12 13 14 15
000
FTUS45 KTFX 242300
TAFHVR
TAF
KHVR 242331Z 2500/2524 25010KT P6SM BKN070
     FM250900 23008KT P6SM SCT090 BKN180
     FM252100 31006KT P6SM SCT070 BKN120=

USA.gov is the U.S. government's official web portal to all federal, state and local government web resources and services.